Time;durP1;ratioP1;P1;durP2;ratioP2;P2;SDS_P1;SDS_P2;PMS_P1;PMS_P2;Temp;Humidity;BMP_temperature;BMP_pressure;BME280_temperature;BME280_humidity;BME280_pressure;Samples;Min_cycle;Max_cycle;Signal;HPM_P1;HPM_P2
2022/05/04 00:02:16;;;;;;;2.75;2.55;;;15.60;38.20;;;13.54;41.17;101418.69;12238877;19;20043;-83
2022/05/04 00:06:18;;;;;;;5.32;2.67;;;15.60;38.30;;;13.14;41.36;101358.78;12240431;19;20441;-83
2022/05/04 00:10:19;;;;;;;2.70;2.50;;;15.40;38.20;;;13.36;41.20;101397.78;12241998;19;20566;-83
2022/05/04 00:14:25;;;;;;;2.88;2.67;;;15.50;38.40;;;13.35;41.40;101400.50;12238080;19;20109;-83
2022/05/04 00:18:30;;;;;;;3.83;3.53;;;15.40;38.40;;;13.34;41.50;101409.28;12240157;19;20362;-83
2022/05/04 00:22:32;;;;;;;4.32;3.90;;;15.40;38.40;;;13.23;41.36;101387.13;12239315;19;20046;-83
2022/05/04 00:26:33;;;;;;;3.97;3.67;;;15.30;38.30;;;13.36;41.37;101415.31;12242005;19;20006;-83
2022/05/04 00:30:35;;;;;;;4.25;3.85;;;15.60;38.60;;;13.33;41.50;101413.69;12241639;19;20010;-83
2022/05/04 00:34:38;;;;;;;3.92;3.53;;;15.40;38.40;;;13.07;41.65;101397.63;12237699;19;20019;-83
2022/05/04 00:38:40;;;;;;;3.72;3.42;;;15.30;38.40;;;13.12;41.62;101415.69;12239397;19;20023;-83
2022/05/04 00:42:42;;;;;;;3.75;3.35;;;15.30;38.40;;;12.90;41.67;101386.34;12241011;19;20010;-83
2022/05/04 00:46:44;;;;;;;3.50;3.17;;;15.00;38.30;;;12.81;41.76;101400.81;12238820;19;20034;-83
2022/05/04 00:50:49;;;;;;;3.83;3.15;;;15.00;38.40;;;12.79;42.09;101407.88;12239839;19;20016;-83
2022/05/04 00:54:52;;;;;;;4.15;2.70;;;15.00;38.60;;;12.61;41.83;101400.09;12238636;19;20014;-83
2022/05/04 00:58:56;;;;;;;3.00;2.70;;;14.90;38.70;;;12.55;42.02;101399.56;12233517;19;20535;-83
2022/05/04 01:02:58;;;;;;;2.88;2.40;;;14.70;38.70;;;12.41;42.25;101392.41;12237773;19;20051;-83
2022/05/04 01:07:00;;;;;;;2.70;2.50;;;14.60;38.80;;;12.43;42.29;101405.44;12237629;19;20484;-83
2022/05/04 01:11:01;;;;;;;3.00;2.55;;;14.70;38.90;;;12.46;42.23;101418.38;12240666;19;20066;-83
2022/05/04 01:15:04;;;;;;;5.47;2.83;;;14.60;38.90;;;12.39;42.42;101405.63;12237170;19;20366;-83
2022/05/04 01:19:07;;;;;;;2.95;2.75;;;14.60;39.00;;;12.32;42.43;101403.38;12238794;19;20388;-83
2022/05/04 01:23:09;;;;;;;2.70;2.50;;;14.50;39.00;;;12.26;42.44;101404.56;12237419;19;20511;-83
2022/05/04 01:27:11;;;;;;;3.60;2.60;;;14.30;38.90;;;12.13;42.56;101427.03;12240059;19;20031;-83
2022/05/04 01:31:13;;;;;;;3.17;2.63;;;14.40;38.80;;;11.81;42.65;101403.28;12236692;19;20034;-83
2022/05/04 01:35:15;;;;;;;2.72;2.53;;;14.30;38.80;;;11.41;42.67;101358.16;12236044;19;20018;-83
2022/05/04 01:39:17;;;;;;;2.70;2.50;;;14.30;38.70;;;11.42;42.56;101357.25;12235867;19;20014;-83
2022/05/04 01:43:19;;;;;;;2.80;2.58;;;14.10;38.90;;;11.77;42.74;101416.59;12234760;19;20042;-82
2022/05/04 01:47:20;;;;;;;3.40;2.20;;;13.90;39.00;;;11.46;42.84;101365.78;12238312;19;20019;-83
2022/05/04 01:51:22;;;;;;;2.45;2.25;;;14.00;39.20;;;11.75;42.86;101411.44;12234261;19;20015;-83
2022/05/04 01:55:25;;;;;;;3.35;2.47;;;14.00;39.30;;;11.73;42.84;101421.13;12223325;19;20019;-83
2022/05/04 01:59:27;;;;;;;2.35;2.15;;;13.90;39.30;;;11.62;43.01;101410.34;12236878;19;20015;-83
2022/05/04 02:03:29;;;;;;;2.78;2.58;;;14.10;39.40;;;11.60;42.95;101409.56;12233756;19;20011;-83
2022/05/04 02:07:34;;;;;;;2.47;2.28;;;13.80;39.40;;;11.54;43.21;101388.94;12235818;19;20019;-82
2022/05/04 02:11:37;;;;;;;2.33;2.13;;;13.80;39.40;;;11.42;42.79;101375.56;12234251;19;20100;-83
2022/05/04 02:15:39;;;;;;;2.58;2.35;;;13.80;39.50;;;11.63;42.82;101420.72;12232318;19;20007;-83
2022/05/04 02:19:40;;;;;;;2.35;2.15;;;13.80;39.30;;;11.52;43.05;101397.69;12232589;19;20018;-83
2022/05/04 02:23:42;;;;;;;2.22;2.05;;;13.50;39.30;;;11.44;42.96;101402.44;12233074;19;20006;-83
2022/05/04 02:27:44;;;;;;;2.63;2.42;;;13.60;39.30;;;11.41;42.94;101409.59;12231764;19;20006;-83
2022/05/04 02:31:46;;;;;;;2.45;2.28;;;13.70;39.30;;;11.28;43.12;101407.56;12234933;19;20014;-83
2022/05/04 02:40:09;;;;;;;3.15;1.77;;;13.50;39.50;;;11.15;43.30;101402.97;12236266;19;20010;-83
2022/05/04 02:44:11;;;;;;;2.75;2.00;;;13.40;39.50;;;11.11;43.55;101414.50;12244108;19;20066;-83
2022/05/04 02:48:12;;;;;;;2.38;2.17;;;13.40;39.70;;;10.97;43.52;101384.63;12246479;19;20022;-83
2022/05/04 02:52:14;;;;;;;2.70;2.38;;;13.40;39.80;;;10.78;43.49;101362.88;12244273;19;20053;-83
2022/05/04 02:56:16;;;;;;;2.50;2.30;;;13.10;39.70;;;11.07;43.45;101424.25;12244524;19;20015;-83
2022/05/04 03:00:18;;;;;;;2.30;2.17;;;13.00;39.50;;;10.85;43.52;101396.50;12244989;19;20377;-83
2022/05/04 03:04:20;;;;;;;2.83;2.60;;;13.20;39.70;;;10.63;43.59;101365.25;12240011;19;20022;-83
2022/05/04 03:08:21;;;;;;;2.60;2.40;;;13.10;39.80;;;10.92;43.65;101419.75;12244933;19;20360;-83
2022/05/04 03:12:24;;;;;;;2.67;2.47;;;13.20;39.90;;;10.89;43.85;101414.66;12241765;19;20484;-83
2022/05/04 03:16:26;;;;;;;3.75;2.70;;;13.10;39.80;;;10.90;43.76;101422.41;12243689;19;20011;-83
2022/05/04 03:20:28;;;;;;;2.53;2.33;;;13.10;39.90;;;10.70;43.76;101391.97;12242924;19;20037;-83
2022/05/04 03:24:29;;;;;;;2.75;2.47;;;12.90;39.90;;;10.60;43.69;101385.47;12241754;19;20365;-83
2022/05/04 03:28:32;;;;;;;3.10;2.80;;;12.90;39.80;;;10.45;43.88;101363.50;12242653;19;20032;-83
2022/05/04 03:32:33;;;;;;;2.60;2.40;;;12.90;40.00;;;10.67;43.90;101405.16;12239181;19;20019;-83
2022/05/04 03:36:35;;;;;;;2.88;2.17;;;13.00;40.00;;;10.57;44.03;101391.66;12241247;19;20043;-86
2022/05/04 03:40:37;;;;;;;2.35;2.15;;;12.90;40.10;;;10.56;43.94;101402.19;12244654;19;20370;-86
2022/05/04 03:44:39;;;;;;;2.50;2.30;;;12.90;40.10;;;10.53;43.99;101384.91;12239200;19;20018;-86
2022/05/04 03:48:41;;;;;;;2.78;2.58;;;12.90;40.20;;;10.78;44.18;101425.59;12242398;19;20010;-84
2022/05/04 03:52:43;;;;;;;3.47;2.38;;;12.80;40.30;;;10.73;44.23;101411.88;12240488;19;20084;-84
2022/05/04 03:56:45;;;;;;;3.08;2.75;;;12.70;40.40;;;10.44;44.21;101366.16;12242270;19;20070;-84
2022/05/04 04:00:46;;;;;;;3.00;2.80;;;13.00;40.40;;;10.74;44.20;101417.03;12242633;19;20337;-82
2022/05/04 04:04:48;;;;;;;3.72;2.83;;;12.90;40.40;;;10.74;44.25;101413.56;12238897;19;20338;-84
2022/05/04 04:08:51;;;;;;;3.22;2.55;;;13.00;40.50;;;10.67;44.30;101407.78;12241536;19;20365;-81
2022/05/04 04:12:52;;;;;;;2.72;2.53;;;12.80;40.60;;;10.66;44.35;101426.13;12240416;19;20006;-80
2022/05/04 04:16:54;;;;;;;3.72;2.33;;;13.00;40.60;;;10.61;44.60;101413.25;12242833;19;20018;-82
2022/05/04 04:25:16;;;;;;;2.72;2.47;;;13.00;40.90;;;10.69;44.68;101420.75;12239824;19;20011;-83
2022/05/04 04:29:18;;;;;;;3.50;3.08;;;13.00;40.90;;;10.75;44.75;101425.72;12239589;19;20078;-83
2022/05/04 04:33:26;;;;;;;3.80;2.58;;;13.00;41.10;;;10.85;44.83;101437.44;12236421;19;20074;-82
2022/05/04 04:37:27;;;;;;;5.97;2.60;;;13.00;41.20;;;10.89;44.82;101425.09;12238522;19;20035;-92
2022/05/04 04:41:30;;;;;;;4.32;2.72;;;13.10;41.30;;;10.73;44.90;101396.22;12241305;19;20381;-91
2022/05/04 04:45:31;;;;;;;3.58;2.78;;;13.10;41.50;;;11.10;44.89;101452.00;12244642;19;20027;-90
2022/05/04 04:49:33;;;;;;;3.75;2.78;;;13.20;41.60;;;11.08;45.04;101442.47;12243544;19;20053;-92
2022/05/04 04:53:35;;;;;;;5.15;3.00;;;13.10;41.60;;;11.15;45.27;101444.81;12240695;19;20085;-91
2022/05/04 04:57:37;;;;;;;2.72;2.53;;;13.10;41.60;;;11.20;45.25;101442.84;12242256;19;20455;-89
2022/05/04 05:01:39;;;;;;;3.78;2.80;;;13.30;41.80;;;11.25;45.24;101435.63;12240926;19;20018;-92
2022/05/04 05:05:42;;;;;;;2.97;2.45;;;13.40;42.10;;;11.36;45.48;101463.88;12243548;19;20069;-91
2022/05/04 05:09:44;;;;;;;4.22;2.78;;;13.50;42.10;;;11.41;45.46;101457.53;12244096;19;20044;-92
2022/05/04 05:18:06;;;;;;;4.07;2.83;;;13.60;42.10;;;11.62;45.63;101463.50;12241042;19;20011;-87
2022/05/04 05:22:07;;;;;;;4.63;3.80;;;13.70;42.30;;;11.76;45.80;101472.47;12241872;19;20424;-92
2022/05/04 05:26:09;;;;;;;6.15;4.25;;;13.80;42.80;;;11.49;45.80;101418.78;12245672;19;20081;-93
2022/05/04 05:30:13;;;;;;;5.57;4.57;;;13.80;42.60;;;11.85;45.86;101451.06;12245811;19;20013;-86
2022/05/04 05:34:14;;;;;;;6.22;4.38;;;14.00;42.90;;;11.83;46.11;101438.09;12234997;19;20013;-93
2022/05/04 05:38:16;;;;;;;5.47;4.20;;;14.00;43.40;;;11.93;45.95;101439.34;12242732;19;20566;-90
2022/05/04 05:42:18;;;;;;;4.85;3.92;;;14.00;43.00;;;12.17;46.19;101470.47;12237612;19;20984;-86
2022/05/04 05:46:20;;;;;;;4.70;3.42;;;14.20;43.00;;;12.24;46.09;101463.16;12235503;19;20078;-86
2022/05/04 05:50:21;;;;;;;3.72;3.20;;;14.20;43.00;;;11.86;46.21;101390.00;12236021;19;20103;-88
2022/05/04 05:54:23;;;;;;;3.38;2.42;;;14.40;43.20;;;12.33;46.36;101447.81;12234674;19;20022;-88
2022/05/04 05:58:25;;;;;;;3.80;3.33;;;14.50;43.30;;;12.60;46.38;101481.38;12235360;19;20011;-88
2022/05/04 06:02:28;;;;;;;3.70;2.95;;;14.40;43.10;;;12.67;46.50;101469.66;12234547;19;20090;-89
2022/05/04 06:06:30;;;;;;;4.13;2.83;;;14.70;43.40;;;12.40;46.38;101409.91;12234919;19;20386;-89
2022/05/04 06:10:32;;;;;;;3.33;2.90;;;14.70;43.40;;;12.72;46.40;101456.31;12233781;19;20054;-88
2022/05/04 06:14:33;;;;;;;4.75;2.83;;;14.90;43.60;;;12.98;46.63;101489.88;12234512;19;20405;-88
2022/05/04 06:18:35;;;;;;;3.63;3.15;;;15.00;43.50;;;12.74;46.59;101442.19;12245973;19;20027;-87
2022/05/04 06:22:38;;;;;;;2.88;2.58;;;15.10;43.50;;;12.78;46.70;101430.63;12246667;19;20014;-88
2022/05/04 06:26:39;;;;;;;3.22;2.80;;;15.10;43.50;;;13.14;46.86;101479.41;12244941;19;20436;-86
2022/05/04 06:35:01;;;;;;;4.65;2.90;;;15.30;43.50;;;13.30;46.74;101478.63;12241308;19;20022;-87
2022/05/04 06:39:03;;;;;;;4.00;2.97;;;15.30;43.40;;;13.32;46.82;101469.72;12249866;19;20019;-89
2022/05/04 06:43:05;;;;;;;2.90;2.60;;;15.50;43.40;;;13.49;46.70;101487.16;12247831;19;20082;-91
2022/05/04 06:47:07;;;;;;;3.10;2.78;;;15.50;43.20;;;13.32;46.68;101454.00;12252199;19;20082;-91
2022/05/04 06:51:09;;;;;;;3.20;2.92;;;15.60;43.30;;;13.44;46.74;101466.41;12252112;19;20019;-91
2022/05/04 06:55:10;;;;;;;3.20;2.90;;;15.60;43.20;;;13.61;46.89;101485.63;12246561;19;20019;-91
2022/05/04 06:59:12;;;;;;;11.15;2.70;;;15.70;43.40;;;13.59;46.86;101463.91;12252539;19;20468;-92
2022/05/04 07:03:13;;;;;;;3.40;3.10;;;15.80;43.40;;;13.70;46.77;101472.00;12247116;19;20015;-91
2022/05/04 07:07:15;;;;;;;3.95;2.85;;;15.70;43.30;;;13.92;46.76;101487.38;12247385;19;20463;-93
2022/05/04 07:11:17;;;;;;;2.83;2.60;;;15.90;43.30;;;14.03;46.79;101492.03;12249633;19;20014;-91
2022/05/04 07:15:20;;;;;;;3.80;2.78;;;16.00;43.30;;;14.12;46.92;101491.47;12242900;19;20017;-91
2022/05/04 07:19:21;;;;;;;2.50;2.30;;;16.10;43.30;;;14.16;46.70;101472.84;12250766;19;20022;-92
2022/05/04 07:23:23;;;;;;;3.50;2.78;;;16.20;43.20;;;14.19;46.73;101469.19;12245874;19;20019;-92
2022/05/04 07:27:25;;;;;;;3.38;2.90;;;16.30;43.00;;;14.25;46.76;101466.19;12246740;19;20383;-91
2022/05/04 07:31:26;;;;;;;2.63;2.42;;;16.40;43.00;;;14.54;46.73;101503.94;12248538;19;20011;-91
2022/05/04 07:35:28;;;;;;;3.72;2.70;;;16.50;43.00;;;14.63;46.57;101489.38;12244497;19;20014;-92
2022/05/04 07:43:49;;;;;;;3.03;2.70;;;17.10;43.20;;;14.86;46.54;101484.53;12243692;19;20531;-91
2022/05/04 07:47:51;;;;;;;2.83;2.55;;;16.70;42.80;;;14.91;46.51;101470.16;12247290;19;20027;-91
2022/05/04 07:51:53;;;;;;;2.80;2.45;;;16.90;42.90;;;15.02;46.44;101466.88;12247413;19;20039;-91
2022/05/04 07:55:54;;;;;;;2.80;2.55;;;17.00;42.90;;;15.24;46.39;101484.78;12244517;19;20010;-91
2022/05/04 08:04:17;;;;;;;3.08;2.03;;;17.20;42.60;;;15.46;46.35;101493.00;12241431;19;20464;-92
2022/05/04 08:08:18;;;;;;;16.65;3.13;;;17.30;42.50;;;15.51;46.25;101461.16;12244404;19;20030;-93
2022/05/04 08:12:20;;;;;;;2.50;2.25;;;17.30;42.50;;;15.85;46.28;101475.66;12243027;19;20011;-90
2022/05/04 08:16:22;;;;;;;2.58;2.38;;;17.50;42.40;;;16.13;46.35;101468.53;12239887;19;20050;-93
2022/05/04 08:20:25;;;;;;;1.85;1.75;;;17.90;42.50;;;16.05;46.02;101410.25;12242915;19;20019;-91
2022/05/04 08:24:29;;;;;;;2.10;1.90;;;18.20;42.30;;;16.61;45.67;101450.34;12241927;19;20018;-91
2022/05/04 08:28:32;;;;;;;1.92;1.83;;;18.40;41.60;;;16.68;45.15;101424.38;12245152;19;20014;-91
2022/05/04 08:32:34;;;;;;;2.17;1.98;;;18.30;41.10;;;17.10;45.09;101438.19;12243360;19;20066;-91
2022/05/04 08:36:37;;;;;;;3.67;1.80;;;18.90;40.90;;;17.08;44.94;101389.94;12243740;19;20006;-91
2022/05/04 08:40:40;;;;;;;2.22;2.03;;;19.20;40.60;;;17.93;44.47;101488.50;12246669;19;20021;-96
2022/05/04 08:44:47;;;;;;;1.80;1.70;;;19.50;40.50;;;17.86;44.36;101439.69;12240166;19;20683;-91
2022/05/04 08:48:49;;;;;;;2.25;1.75;;;19.60;40.20;;;18.38;44.16;101471.94;12243876;19;20015;-92
2022/05/04 08:52:54;;;;;;;2.75;2.15;;;19.90;40.20;;;18.27;44.24;101404.00;12241873;19;20629;-92
2022/05/04 08:56:58;;;;;;;2.55;1.85;;;20.20;40.10;;;18.51;44.02;101409.19;12242949;19;20010;-92
2022/05/04 09:01:00;;;;;;;2.92;1.83;;;20.10;39.60;;;19.20;43.89;101483.22;12244190;19;20027;-93
2022/05/04 09:05:21;;;;;;;1.80;1.70;;;20.50;39.30;;;19.40;43.26;101479.78;12242442;19;20027;-93
2022/05/04 09:09:23;;;;;;;1.85;1.75;;;21.00;38.90;;;19.45;43.28;101459.06;12243906;19;20010;-92
2022/05/04 09:13:24;;;;;;;1.95;1.83;;;21.20;38.90;;;19.75;43.22;101470.00;12239903;19;20049;-91
2022/05/04 09:17:26;;;;;;;2.15;1.80;;;21.70;39.30;;;19.96;43.42;101470.88;12241415;19;20433;-92
2022/05/04 09:21:28;;;;;;;2.53;2.08;;;21.50;39.00;;;20.21;42.88;101466.16;12240582;19;20051;-93
2022/05/04 09:25:36;;;;;;;2.17;1.98;;;21.80;38.80;;;20.37;42.98;101458.59;12240407;19;20018;-92
2022/05/04 09:29:42;;;;;;;2.10;2.00;;;21.80;38.40;;;20.50;42.66;101455.72;12241751;19;20026;-91
2022/05/04 09:33:53;;;;;;;2.33;2.10;;;22.20;38.10;;;20.63;42.30;101464.34;12241299;19;20015;-92
2022/05/04 09:46:44;;;;;;;1.63;1.52;;;22.50;37.50;;;20.67;41.89;101449.00;12235950;19;20054;-89
2022/05/04 09:50:46;;;;;;;5.40;1.98;;;22.30;37.60;;;20.47;41.87;101426.81;12234811;19;20018;-90
2022/05/04 09:54:47;;;;;;;2.30;2.10;;;22.70;37.10;;;20.30;41.89;101413.16;12231395;19;20330;-88
2022/05/04 09:58:51;;;;;;;2.53;1.98;;;22.60;36.70;;;20.51;41.34;101450.28;12235359;19;20017;-92
2022/05/04 10:02:55;;;;;;;2.53;1.95;;;22.50;36.50;;;20.34;40.92;101411.94;12237207;19;20062;-90
2022/05/04 10:06:57;;;;;;;3.63;1.80;;;22.70;36.60;;;20.61;41.19;101457.50;12236005;19;20536;-90
2022/05/04 10:10:59;;;;;;;2.13;1.77;;;22.60;36.60;;;20.72;40.98;101458.25;12240002;19;20019;-92
2022/05/04 10:15:01;;;;;;;2.05;1.73;;;22.50;36.50;;;20.73;40.71;101428.06;12234866;19;20011;-91
2022/05/04 10:19:07;;;;;;;2.00;1.70;;;22.60;36.70;;;20.86;40.84;101441.09;12236993;19;20559;-88
2022/05/04 10:23:24;;;;;;;2.38;2.17;;;22.70;36.50;;;21.04;40.84;101440.50;12235311;19;20120;-91
2022/05/04 10:27:28;;;;;;;1.95;1.80;;;22.80;36.50;;;21.07;40.42;101435.72;12235927;19;20437;-92
2022/05/04 10:31:29;;;;;;;2.30;2.05;;;23.20;36.40;;;20.67;40.66;101361.41;12236338;19;20488;-91
2022/05/04 10:35:48;;;;;;;4.35;1.80;;;22.90;36.30;;;21.23;40.08;101447.66;12233740;19;20053;-93
2022/05/04 10:40:06;;;;;;;2.72;1.88;;;23.00;36.10;;;20.95;40.12;101413.78;12235993;19;20381;-91
2022/05/04 10:44:11;;;;;;;2.03;1.83;;;23.00;35.80;;;21.05;40.16;101423.56;12231320;19;20556;-92
2022/05/04 10:48:19;;;;;;;4.15;1.77;;;23.00;35.90;;;21.11;39.89;101439.78;12237052;19;20022;-92
2022/05/04 10:52:22;;;;;;;2.63;1.92;;;23.00;35.70;;;20.97;39.98;101418.94;12235248;19;20043;-91
2022/05/04 10:56:27;;;;;;;1.90;1.80;;;22.90;35.90;;;21.15;39.93;101435.91;12236014;19;20010;-91
2022/05/04 11:00:29;;;;;;;1.95;1.75;;;23.00;35.90;;;21.04;39.90;101417.41;12235405;19;20019;-90
2022/05/04 11:04:32;;;;;;;2.13;2.03;;;23.10;35.80;;;21.21;39.58;101427.38;12243269;19;20027;-91
2022/05/04 11:08:35;;;;;;;2.38;2.17;;;23.10;35.80;;;21.18;39.68;101422.34;12245973;19;20013;-91
2022/05/04 11:12:37;;;;;;;6.53;1.88;;;23.10;35.50;;;21.29;39.86;101436.47;12245594;19;20046;-92
2022/05/04 11:16:41;;;;;;;2.33;2.10;;;23.10;35.80;;;21.16;39.50;101415.47;12247763;19;20014;-92
2022/05/04 11:20:46;;;;;;;2.22;2.03;;;23.10;35.30;;;21.29;39.33;101433.81;12247002;19;20006;-90
2022/05/04 11:24:49;;;;;;;3.50;1.73;;;23.10;35.30;;;21.37;39.43;101431.31;12242013;19;20605;-92
2022/05/04 11:28:53;;;;;;;1.83;1.73;;;23.10;35.60;;;21.33;39.20;101400.69;12244864;19;20053;-91
2022/05/04 11:32:54;;;;;;;2.03;1.83;;;23.20;35.30;;;21.48;39.23;101402.00;12243274;19;20019;-90
2022/05/04 11:36:58;;;;;;;2.33;2.00;;;23.30;35.50;;;21.58;39.27;101405.50;12244809;19;20032;-92
2022/05/04 11:41:01;;;;;;;2.15;1.92;;;23.30;35.40;;;21.50;38.77;101394.72;12244330;19;20484;-90
2022/05/04 11:45:04;;;;;;;4.57;1.88;;;23.40;35.20;;;21.54;39.03;101396.09;12240159;19;20010;-88
2022/05/04 11:49:09;;;;;;;2.22;2.03;;;23.40;35.10;;;21.53;38.54;101386.47;12243617;19;20015;-90
2022/05/04 11:53:12;;;;;;;4.22;1.60;;;23.50;34.90;;;21.36;38.74;101355.22;12242126;19;20082;-92
2022/05/04 11:57:14;;;;;;;1.85;1.75;;;23.50;35.10;;;21.67;38.47;101402.97;12245097;19;20464;-90
2022/05/04 12:01:16;;;;;;;3.95;1.92;;;23.40;34.70;;;21.58;38.62;101383.41;12242868;19;20043;-90
2022/05/04 12:05:18;;;;;;;2.00;1.55;;;23.50;34.80;;;21.62;38.43;101382.13;12241995;19;20031;-90
2022/05/04 12:09:20;;;;;;;6.70;1.90;;;23.60;34.90;;;21.66;38.51;101388.84;12240508;19;20047;-89
2022/05/04 12:13:26;;;;;;;1.98;1.88;;;23.60;34.50;;;21.55;38.46;101373.03;12237489;19;20074;-91
2022/05/04 12:17:27;;;;;;;2.30;1.92;;;23.50;34.70;;;21.64;38.38;101383.66;12242142;19;20018;-90
2022/05/04 12:21:29;;;;;;;2.10;1.88;;;23.50;34.60;;;21.55;38.22;101349.97;12242513;19;20026;-90
2022/05/04 12:25:32;;;;;;;7.53;2.55;;;23.50;34.70;;;21.69;38.11;101351.34;12242095;19;20014;-90
2022/05/04 12:33:56;;;;;;;2.22;2.00;;;23.70;34.60;;;21.90;38.16;101367.13;12241155;19;20014;-90
2022/05/04 12:37:58;;;;;;;2.25;2.13;;;23.70;34.60;;;21.85;37.88;101356.91;12240603;19;20053;-89
2022/05/04 12:42:00;;;;;;;3.42;2.50;;;23.50;34.10;;;21.69;37.72;101310.63;12242455;19;20007;-89
2022/05/04 12:46:07;;;;;;;2.33;2.08;;;23.80;34.30;;;21.93;37.86;101332.28;12238463;19;20022;-89
2022/05/04 12:50:09;;;;;;;2.63;1.92;;;23.80;34.40;;;22.07;37.53;101330.97;12240279;19;20026;-89
2022/05/04 12:54:11;;;;;;;2.92;2.13;;;23.80;34.30;;;22.17;37.64;101336.25;12238101;19;20044;-88
2022/05/04 12:58:14;;;;;;;2.55;2.20;;;23.70;34.10;;;22.04;37.32;101294.03;12241612;19;20378;-90
2022/05/04 13:02:15;;;;;;;2.20;2.10;;;23.90;34.20;;;22.37;37.10;101345.88;12238357;19;20532;-88
2022/05/04 13:06:20;;;;;;;2.20;2.10;;;24.00;34.00;;;22.26;36.80;101311.47;12237952;19;20033;-90
2022/05/04 13:10:22;;;;;;;5.15;3.20;;;24.10;33.80;;;22.31;37.10;101322.53;12239900;19;20042;-91
2022/05/04 13:14:23;;;;;;;1.80;1.70;;;24.10;33.80;;;22.26;37.00;101309.66;12239226;19;20011;-93
2022/05/04 13:18:25;;;;;;;3.25;2.00;;;24.10;33.80;;;22.30;36.82;101321.69;12243728;19;20029;-92
2022/05/04 13:22:27;;;;;;;4.30;1.75;;;24.10;33.80;;;22.26;37.19;101300.81;12242154;19;20015;-92
2022/05/04 13:26:29;;;;;;;2.75;1.95;;;24.20;33.80;;;22.01;36.82;101247.28;12238667;19;20035;-91
2022/05/04 13:30:31;;;;;;;2.20;2.10;;;24.10;33.60;;;22.29;36.91;101288.06;12243145;19;20015;-90
2022/05/04 13:34:33;;;;;;;3.53;1.75;;;24.10;33.60;;;22.34;36.97;101300.94;12236862;19;20017;-91
2022/05/04 13:38:35;;;;;;;2.10;1.98;;;24.10;33.70;;;22.36;36.90;101304.28;12237568;19;20018;-89
2022/05/04 13:42:37;;;;;;;2.58;2.22;;;24.20;33.50;;;22.33;36.70;101309.88;12239060;19;20014;-90
2022/05/04 13:46:38;;;;;;;2.28;2.13;;;24.10;33.50;;;21.99;36.49;101246.56;12237023;19;20718;-91
2022/05/04 13:55:00;;;;;;;2.20;2.00;;;23.90;33.50;;;22.28;36.47;101283.72;12236924;19;20459;-91
2022/05/04 13:59:02;;;;;;;2.42;2.22;;;24.30;33.50;;;22.26;36.80;101282.19;12236369;19;20011;-91
2022/05/04 14:03:05;;;;;;;2.55;2.33;;;24.00;33.50;;;22.21;36.49;101264.00;12236291;19;20018;-91
2022/05/04 14:07:07;;;;;;;3.15;2.10;;;24.10;33.40;;;22.39;36.52;101285.34;12237824;19;20022;-91
2022/05/04 14:11:08;;;;;;;2.40;2.20;;;24.20;33.50;;;22.41;36.58;101269.22;12236969;19;20374;-91
2022/05/04 14:15:11;;;;;;;2.40;2.20;;;24.20;33.50;;;22.51;36.20;101273.50;12234396;19;20025;-91
2022/05/04 14:19:13;;;;;;;2.40;2.20;;;24.20;33.50;;;22.58;36.28;101273.75;12236021;19;20042;-92
2022/05/04 14:23:15;;;;;;;2.50;2.30;;;24.30;33.50;;;22.60;36.12;101269.13;12233588;19;20006;-91
2022/05/04 14:27:17;;;;;;;2.15;2.03;;;24.30;33.30;;;22.70;36.23;101269.06;12237365;19;20014;-92
2022/05/04 14:31:18;;;;;;;2.53;2.25;;;24.40;33.50;;;22.76;36.27;101273.78;12234640;19;20036;-92
2022/05/04 14:35:20;;;;;;;4.30;2.63;;;24.50;33.40;;;22.69;36.12;101256.75;12236748;19;20823;-91
2022/05/04 14:39:22;;;;;;;2.30;2.10;;;24.60;33.40;;;22.28;35.91;101189.78;12249245;19;20667;-92
2022/05/04 14:43:24;;;;;;;3.75;2.00;;;24.20;33.20;;;22.68;35.83;101255.03;12248737;19;20014;-90
2022/05/04 14:47:25;;;;;;;2.13;1.92;;;24.30;33.30;;;22.66;35.78;101238.41;12248893;19;20018;-91
2022/05/04 14:51:27;;;;;;;2.85;2.13;;;24.40;33.20;;;22.72;35.72;101241.28;12250602;19;20475;-93
2022/05/04 14:55:28;;;;;;;1.85;1.75;;;24.60;33.30;;;22.67;35.78;101238.25;12245602;19;20022;-92
2022/05/04 14:59:30;;;;;;;2.33;2.13;;;24.50;33.20;;;22.80;35.85;101253.84;12249467;19;20011;-91
2022/05/04 16:07:00;;;;;;;2.40;2.22;;;24.50;33.00;;;22.58;35.53;101227.69;12227030;19;20070;-81
2022/05/04 16:11:02;;;;;;;4.53;1.80;;;24.40;32.90;;;22.57;35.33;101223.31;12245140;19;20034;-81
2022/05/04 16:15:04;;;;;;;1.75;1.65;;;24.30;32.80;;;22.60;35.47;101217.69;12240143;19;20061;-81
2022/05/04 16:23:26;;;;;;;2.08;1.92;;;24.80;32.90;;;22.63;35.37;101222.72;12240455;19;20011;-81
2022/05/04 16:27:27;;;;;;;2.40;2.20;;;24.40;32.90;;;22.66;35.40;101235.75;12241128;19;20031;-81
2022/05/04 16:31:29;;;;;;;2.10;2.00;;;24.50;32.80;;;22.57;35.51;101213.50;12241929;19;20047;-80
2022/05/04 16:35:31;;;;;;;3.35;1.90;;;24.30;32.70;;;22.56;35.40;101219.81;12239401;19;20030;-81
2022/05/04 16:39:32;;;;;;;2.72;1.98;;;24.30;32.60;;;22.33;35.24;101178.66;12238325;19;20014;-81
2022/05/04 16:43:34;;;;;;;2.20;2.00;;;24.40;32.80;;;22.52;34.99;101219.31;12236833;19;20030;-81
2022/05/04 16:47:36;;;;;;;2.20;2.00;;;24.30;32.70;;;22.44;35.16;101203.25;12241003;19;20010;-81
2022/05/04 16:51:38;;;;;;;4.90;1.90;;;24.30;32.70;;;22.51;35.31;101212.28;12238511;19;20031;-81
2022/05/04 16:55:41;;;;;;;2.63;2.13;;;24.30;32.90;;;22.42;35.30;101207.88;12235919;19;20021;-81
2022/05/04 16:59:43;;;;;;;1.88;1.73;;;24.30;32.90;;;22.15;35.21;101162.66;12235861;19;20358;-81
2022/05/04 17:03:46;;;;;;;1.83;1.73;;;24.20;33.00;;;22.31;35.40;101202.78;12240209;19;20018;-81
2022/05/04 17:07:51;;;;;;;2.00;1.80;;;24.20;33.10;;;22.38;35.28;101217.13;12235130;19;20076;-81
2022/05/04 17:11:53;;;;;;;2.28;1.85;;;24.40;33.10;;;22.14;35.14;101176.91;12240009;19;20220;-81
2022/05/04 17:15:55;;;;;;;1.88;1.77;;;24.00;33.00;;;22.27;35.24;101206.69;12235790;19;20021;-81
2022/05/04 17:19:57;;;;;;;3.70;2.00;;;24.00;33.20;;;22.23;35.49;101222.13;12240763;19;20030;-81
2022/05/04 17:23:59;;;;;;;2.70;1.92;;;23.90;33.10;;;22.23;35.66;101226.63;12235774;19;20011;-81
2022/05/04 17:28:00;;;;;;;2.15;1.92;;;23.90;33.30;;;22.20;35.61;101226.94;12237088;19;20077;-81
2022/05/04 17:40:42;;;;;;;2.30;2.15;;;23.90;33.70;;;21.95;35.78;101215.94;12237490;19;20447;-80
2022/05/04 17:44:44;;;;;;;2.13;2.00;;;23.80;33.90;;;21.89;35.94;101205.88;12236171;19;20027;-81
2022/05/04 17:48:46;;;;;;;2.28;2.17;;;23.70;34.00;;;21.58;36.24;101168.94;12237062;19;20018;-80
2022/05/04 17:52:49;;;;;;;2.67;2.17;;;23.70;34.00;;;21.71;35.97;101197.00;12238730;19;20026;-81
2022/05/04 17:56:51;;;;;;;2.10;2.00;;;23.70;34.00;;;21.75;36.34;101223.16;12238018;19;20356;-80
2022/05/04 18:00:53;;;;;;;2.42;2.10;;;23.60;34.00;;;21.72;36.49;101222.63;12237321;19;20282;-81
2022/05/04 18:04:54;;;;;;;2.67;1.80;;;23.60;34.30;;;21.69;36.58;101222.91;12235684;19;20014;-81
2022/05/04 18:08:56;;;;;;;2.00;1.90;;;23.50;34.40;;;21.68;36.63;101223.88;12237350;19;20014;-81
2022/05/04 18:12:58;;;;;;;2.22;2.03;;;23.50;34.50;;;21.46;36.83;101198.47;12244198;19;20010;-81
2022/05/04 18:17:01;;;;;;;2.97;2.25;;;23.40;34.50;;;21.51;36.67;101220.97;12246416;19;20082;-81
2022/05/04 18:21:03;;;;;;;2.88;2.60;;;23.40;34.50;;;21.37;36.38;101216.09;12249750;19;20035;-81
2022/05/04 18:25:06;;;;;;;4.60;2.30;;;23.40;34.60;;;21.32;36.60;101219.19;12243745;19;20015;-80
2022/05/04 18:29:08;;;;;;;2.50;1.95;;;23.30;34.60;;;21.30;36.81;101225.59;12247881;19;20010;-80
2022/05/04 18:33:13;;;;;;;3.40;2.42;;;23.20;34.80;;;21.16;36.92;101222.41;12246682;19;20018;-81
2022/05/04 18:37:14;;;;;;;5.68;2.13;;;23.00;34.80;;;21.20;37.00;101244.22;12245509;19;20034;-81